Time;durP1;ratioP1;P1;durP2;ratioP2;P2;SDS_P1;SDS_P2;PMS_P1;PMS_P2;Temp;Humidity;BMP_temperature;BMP_pressure;BME280_temperature;BME280_humidity;BME280_pressure;Samples;Min_cycle;Max_cycle;Signal;HPM_P1;HPM_P2
2020/12/12 00:00:33;;;;;;;10.20;9.20;;;9.10;97.30;;;;;;5013003;28;20418;-74
2020/12/12 00:02:59;;;;;;;9.57;8.67;;;9.20;97.30;;;;;;5014363;28;20262;-74
2020/12/12 00:05:25;;;;;;;9.73;8.80;;;9.30;97.20;;;;;;5013105;28;20187;-75
2020/12/12 00:07:50;;;;;;;10.03;9.13;;;9.30;97.00;;;;;;5013991;28;20183;-74
2020/12/12 00:10:16;;;;;;;9.17;8.17;;;9.20;96.90;;;;;;5007782;28;20184;-74
2020/12/12 00:12:42;;;;;;;9.93;8.93;;;9.20;96.90;;;;;;4994709;28;20270;-74
2020/12/12 00:15:08;;;;;;;10.33;9.43;;;9.30;97.00;;;;;;5002242;28;20507;-75
2020/12/12 00:17:34;;;;;;;9.77;8.87;;;9.40;96.90;;;;;;5014489;28;20457;-74
2020/12/12 00:19:59;;;;;;;11.03;9.93;;;9.20;96.80;;;;;;5014846;28;20775;-74
2020/12/12 00:22:25;;;;;;;10.83;9.80;;;8.70;97.30;;;;;;5033380;28;20170;-74
2020/12/12 00:24:51;;;;;;;9.93;9.03;;;8.70;98.10;;;;;;5033449;28;20238;-74
2020/12/12 00:27:17;;;;;;;9.47;8.57;;;8.90;98.80;;;;;;5032004;28;20174;-74
2020/12/12 00:29:42;;;;;;;9.83;9.03;;;9.00;98.20;;;;;;5029923;28;20539;-76
2020/12/12 00:32:08;;;;;;;9.67;8.77;;;8.80;98.00;;;;;;5000555;28;20269;-75
2020/12/12 00:34:34;;;;;;;10.00;9.10;;;8.80;98.50;;;;;;5012588;28;20670;-74
2020/12/12 00:37:00;;;;;;;11.10;10.00;;;8.90;98.10;;;;;;5013709;28;20190;-74
2020/12/12 00:39:26;;;;;;;9.73;8.73;;;9.00;97.90;;;;;;5013385;28;20249;-75
2020/12/12 00:41:52;;;;;;;9.97;8.97;;;9.00;97.80;;;;;;5013998;28;20426;-75
2020/12/12 00:44:17;;;;;;;9.83;8.80;;;9.00;97.60;;;;;;5013111;28;20241;-74
2020/12/12 00:46:44;;;;;;;9.70;8.80;;;8.90;97.70;;;;;;5002967;28;20690;-75
2020/12/12 00:49:12;;;;;;;9.40;8.50;;;9.00;98.00;;;;;;5012166;28;20186;-75
2020/12/12 00:51:37;;;;;;;10.50;9.43;;;9.00;98.00;;;;;;5013819;28;20414;-75
2020/12/12 00:54:03;;;;;;;11.57;9.23;;;9.10;98.10;;;;;;5013642;28;20961;-74
2020/12/12 00:56:29;;;;;;;10.33;9.33;;;9.20;98.00;;;;;;5012995;28;20583;-74
2020/12/12 00:58:55;;;;;;;9.97;8.97;;;9.20;97.60;;;;;;5013289;28;20406;-74
2020/12/12 01:01:21;;;;;;;11.03;8.43;;;9.20;97.50;;;;;;5012997;28;20209;-75
2020/12/12 01:03:47;;;;;;;9.67;8.50;;;9.20;97.80;;;;;;5006178;28;20183;-75
2020/12/12 01:06:15;;;;;;;9.87;8.87;;;9.30;97.80;;;;;;5011665;28;20432;-74
2020/12/12 01:08:42;;;;;;;10.30;9.30;;;9.30;97.70;;;;;;4994087;28;20432;-74
2020/12/12 01:11:09;;;;;;;9.90;8.90;;;9.30;97.40;;;;;;4993395;28;20493;-76
2020/12/12 01:13:35;;;;;;;10.00;9.00;;;9.30;97.50;;;;;;4993644;28;20573;-75
2020/12/12 01:16:11;;;;;;;12.00;9.33;;;9.30;97.80;;;;;;4993767;28;20895;-74
2020/12/12 01:18:37;;;;;;;10.63;9.50;;;9.30;97.60;;;;;;4993783;28;20411;-74
2020/12/12 01:21:04;;;;;;;10.03;9.00;;;8.90;98.00;;;;;;4993738;28;20422;-75
2020/12/12 01:23:31;;;;;;;10.03;9.00;;;8.80;98.80;;;;;;4993119;28;20458;-74
2020/12/12 01:25:56;;;;;;;10.80;8.90;;;8.80;98.80;;;;;;4993789;28;20512;-74
2020/12/12 01:28:22;;;;;;;9.77;8.77;;;8.90;98.70;;;;;;4991562;28;20919;-75
2020/12/12 01:30:51;;;;;;;9.67;8.77;;;9.00;99.50;;;;;;4993336;28;20171;-75
2020/12/12 01:33:18;;;;;;;9.77;8.87;;;9.10;98.80;;;;;;5002726;28;20445;-75
2020/12/12 01:35:43;;;;;;;10.60;9.50;;;9.10;98.30;;;;;;5011207;28;20474;-74
2020/12/12 01:38:10;;;;;;;10.23;9.07;;;9.20;98.80;;;;;;5010941;28;20521;-76
2020/12/12 01:40:37;;;;;;;9.23;8.33;;;9.30;98.20;;;;;;5012305;28;20647;-74
2020/12/12 01:43:02;;;;;;;10.67;9.57;;;9.10;98.10;;;;;;5012796;28;20896;-75
2020/12/12 01:45:28;;;;;;;9.80;8.80;;;9.20;98.10;;;;;;5027943;28;20497;-75
2020/12/12 01:47:55;;;;;;;10.77;9.50;;;9.10;98.40;;;;;;5012858;28;20194;-74
2020/12/12 01:50:21;;;;;;;10.60;9.50;;;9.10;98.30;;;;;;5011983;28;20418;-74
2020/12/12 01:52:50;;;;;;;9.80;8.70;;;9.00;98.40;;;;;;5012662;28;20410;-74
2020/12/12 01:55:19;;;;;;;9.83;8.83;;;9.00;98.60;;;;;;5011960;28;20202;-75
2020/12/12 01:57:48;;;;;;;9.47;8.37;;;8.70;98.80;;;;;;5012712;28;20822;-74
2020/12/12 02:00:13;;;;;;;11.23;10.13;;;8.80;99.90;;;;;;5010477;28;20753;-74
2020/12/12 02:02:46;;;;;;;10.90;9.80;;;8.80;99.50;;;;;;5012501;28;20491;-74
2020/12/12 02:05:38;;;;;;;10.70;9.60;;;8.90;99.60;;;;;;5011478;28;20174;-76
2020/12/12 02:08:15;;;;;;;10.47;9.40;;;8.90;99.00;;;;;;5012696;28;20395;-75
2020/12/12 02:10:46;;;;;;;10.53;9.43;;;8.90;99.00;;;;;;5012219;28;20485;-74
2020/12/12 02:13:13;;;;;;;11.27;10.10;;;8.80;99.30;;;;;;5011898;28;20409;-75
2020/12/12 02:15:39;;;;;;;12.70;10.63;;;8.90;99.30;;;;;;5012454;28;20456;-74
2020/12/12 02:18:18;;;;;;;11.30;10.07;;;9.00;99.20;;;;;;5011029;28;20406;-74
2020/12/12 02:20:59;;;;;;;9.97;8.93;;;9.10;98.80;;;;;;5012557;28;20405;-74
2020/12/12 02:23:25;;;;;;;11.30;10.20;;;9.10;98.50;;;;;;5011875;28;20460;-74
2020/12/12 02:25:52;;;;;;;10.63;9.53;;;8.90;98.70;;;;;;5011016;28;20544;-74
2020/12/12 02:28:24;;;;;;;10.23;9.20;;;8.60;99.30;;;;;;5011607;28;20487;-74
2020/12/12 02:30:51;;;;;;;10.80;9.20;;;8.60;99.60;;;;;;5011519;28;20401;-74
2020/12/12 02:33:17;;;;;;;10.50;9.43;;;8.50;99.90;;;;;;5011127;28;20787;-74
2020/12/12 02:35:43;;;;;;;11.57;9.83;;;8.60;99.90;;;;;;5012354;28;20501;-74
2020/12/12 02:38:09;;;;;;;11.10;9.90;;;8.70;99.90;;;;;;5010808;28;20432;-76
2020/12/12 02:40:35;;;;;;;12.40;10.20;;;8.80;99.90;;;;;;5011943;28;20776;-74
2020/12/12 02:43:01;;;;;;;10.80;9.43;;;8.80;99.80;;;;;;5012307;28;20229;-74
2020/12/12 02:45:27;;;;;;;10.70;9.60;;;8.70;99.40;;;;;;5011244;28;20873;-74
2020/12/12 02:47:53;;;;;;;11.20;9.70;;;8.50;99.60;;;;;;5014440;28;20513;-74
2020/12/12 02:50:26;;;;;;;12.00;10.70;;;8.40;99.90;;;;;;5015487;28;20413;-75
2020/12/12 02:52:53;;;;;;;11.17;9.67;;;8.50;99.90;;;;;;5015872;28;20179;-74
2020/12/12 02:55:20;;;;;;;10.47;9.40;;;8.40;99.90;;;;;;5015296;28;20460;-74
2020/12/12 02:57:45;;;;;;;11.40;9.90;;;8.40;99.90;;;;;;5016074;28;20428;-77
2020/12/12 03:00:20;;;;;;;11.07;9.87;;;8.50;99.90;;;;;;5012735;28;20770;-76
2020/12/12 03:02:46;;;;;;;11.27;9.60;;;8.40;99.90;;;;;;5011579;28;20191;-74
2020/12/12 03:05:11;;;;;;;12.90;9.50;;;8.50;99.90;;;;;;5013965;28;20468;-75
2020/12/12 03:07:37;;;;;;;11.33;10.00;;;8.50;99.90;;;;;;5014798;28;20168;-74
2020/12/12 03:10:06;;;;;;;10.50;9.40;;;8.40;99.90;;;;;;5015822;28;20615;-74
2020/12/12 03:12:37;;;;;;;10.80;9.67;;;8.40;99.90;;;;;;5013880;28;20237;-74
2020/12/12 03:15:05;;;;;;;13.73;10.03;;;8.10;99.90;;;;;;5015835;28;20431;-74
2020/12/12 03:17:31;;;;;;;11.53;9.87;;;8.30;99.90;;;;;;5014648;28;20408;-74
2020/12/12 03:19:56;;;;;;;11.20;9.53;;;8.40;99.90;;;;;;5015944;28;20400;-74
2020/12/12 03:22:22;;;;;;;10.83;9.30;;;8.50;99.90;;;;;;5014646;28;20175;-74
2020/12/12 03:24:48;;;;;;;9.60;8.57;;;8.50;99.90;;;;;;5015127;28;20217;-74
2020/12/12 03:27:14;;;;;;;9.57;8.57;;;8.50;99.90;;;;;;5014604;28;20642;-75
2020/12/12 03:29:39;;;;;;;9.03;7.60;;;8.40;99.90;;;;;;5015495;28;20630;-74
2020/12/12 03:32:10;;;;;;;8.93;8.10;;;8.20;99.90;;;;;;5014931;28;20411;-74
2020/12/12 03:34:36;;;;;;;8.80;7.90;;;8.20;99.90;;;;;;5014778;28;20236;-74
2020/12/12 03:37:03;;;;;;;8.60;7.80;;;8.20;99.90;;;;;;5015333;28;20444;-74
2020/12/12 03:39:29;;;;;;;8.87;7.97;;;8.10;99.90;;;;;;5014517;28;20408;-74
2020/12/12 03:41:55;;;;;;;8.80;7.43;;;8.20;99.90;;;;;;5015243;28;20463;-74
2020/12/12 03:44:20;;;;;;;9.13;8.23;;;8.40;99.90;;;;;;5014333;28;20573;-74
2020/12/12 03:46:46;;;;;;;9.07;8.20;;;8.50;99.90;;;;;;5015173;28;20202;-74
2020/12/12 03:49:12;;;;;;;9.93;8.67;;;8.50;99.90;;;;;;5014984;28;20535;-75
2020/12/12 03:51:37;;;;;;;8.97;8.07;;;8.50;99.90;;;;;;5014455;28;20259;-74
2020/12/12 03:54:03;;;;;;;8.87;8.07;;;8.60;99.90;;;;;;5015239;28;20340;-74
2020/12/12 03:56:29;;;;;;;8.53;7.77;;;8.60;99.90;;;;;;5013424;28;20183;-74
2020/12/12 03:58:55;;;;;;;7.93;7.20;;;8.60;99.90;;;;;;5014270;28;20416;-74
2020/12/12 04:01:21;;;;;;;9.40;8.50;;;8.70;99.90;;;;;;5014030;28;20182;-75
2020/12/12 04:03:46;;;;;;;7.83;7.13;;;8.70;99.90;;;;;;5014870;28;20528;-74
2020/12/12 04:06:12;;;;;;;7.87;7.10;;;8.80;99.90;;;;;;5011972;28;20187;-70
2020/12/12 04:08:38;;;;;;;8.97;8.03;;;8.80;99.90;;;;;;5015042;28;20619;-70
2020/12/12 04:11:03;;;;;;;8.83;8.00;;;8.90;99.90;;;;;;5015334;28;20258;-68
2020/12/12 04:13:29;;;;;;;8.20;7.40;;;8.80;99.90;;;;;;5013485;28;20183;-69
2020/12/12 04:15:55;;;;;;;7.37;6.60;;;8.80;99.90;;;;;;5014804;28;20224;-68
2020/12/12 04:18:21;;;;;;;7.47;6.77;;;8.50;99.90;;;;;;5013785;28;20805;-69
2020/12/12 04:20:48;;;;;;;8.60;7.67;;;8.60;99.90;;;;;;5014655;28;20672;-69
2020/12/12 04:23:13;;;;;;;8.20;7.40;;;8.70;99.90;;;;;;5012391;28;20461;-70
2020/12/12 04:25:39;;;;;;;7.87;7.17;;;8.70;99.90;;;;;;5014678;28;20497;-69
2020/12/12 04:28:06;;;;;;;8.07;7.27;;;8.70;99.90;;;;;;5014534;28;20639;-69
2020/12/12 04:30:32;;;;;;;7.73;7.03;;;8.50;99.90;;;;;;5013573;28;20258;-69
2020/12/12 04:32:58;;;;;;;7.70;6.97;;;8.60;99.90;;;;;;5014346;28;20501;-69
2020/12/12 04:35:23;;;;;;;9.10;8.20;;;8.60;99.90;;;;;;5013427;28;21083;-69
2020/12/12 04:37:49;;;;;;;7.53;6.83;;;8.60;99.90;;;;;;5010201;28;20195;-69
2020/12/12 04:40:15;;;;;;;8.50;7.70;;;8.60;99.90;;;;;;5014634;28;20263;-70
2020/12/12 04:42:42;;;;;;;7.80;6.97;;;8.70;99.90;;;;;;5014746;28;20429;-69
2020/12/12 04:45:10;;;;;;;9.47;8.47;;;8.80;99.90;;;;;;5013948;28;20418;-69
2020/12/12 04:47:37;;;;;;;9.03;7.80;;;8.80;99.90;;;;;;5013300;28;20410;-69
2020/12/12 04:50:04;;;;;;;9.30;8.40;;;8.80;99.90;;;;;;5014268;28;20424;-69
2020/12/12 04:52:34;;;;;;;9.43;8.53;;;8.80;99.90;;;;;;5013332;28;20428;-69
2020/12/12 04:55:05;;;;;;;8.87;7.90;;;8.90;99.90;;;;;;5010771;28;20815;-69
2020/12/12 04:57:38;;;;;;;9.13;8.10;;;8.80;99.90;;;;;;5013908;28;20429;-69
2020/12/12 05:00:12;;;;;;;9.00;8.10;;;8.90;99.90;;;;;;5014177;28;20390;-69
2020/12/12 05:02:38;;;;;;;8.23;7.43;;;8.80;99.90;;;;;;5012703;28;21019;-69
2020/12/12 05:05:06;;;;;;;9.83;8.83;;;8.80;99.90;;;;;;5013716;28;20445;-69
2020/12/12 05:07:32;;;;;;;9.73;8.17;;;8.80;99.90;;;;;;5012962;28;20421;-69
2020/12/12 05:09:59;;;;;;;10.00;8.10;;;8.70;99.90;;;;;;5009578;28;20520;-69
2020/12/12 05:12:24;;;;;;;10.03;8.93;;;8.40;99.90;;;;;;5013051;28;20602;-69
2020/12/12 05:14:51;;;;;;;11.87;9.67;;;8.40;99.90;;;;;;5014068;28;20495;-69
2020/12/12 05:17:19;;;;;;;9.17;8.27;;;8.30;99.90;;;;;;5013670;28;20554;-70
2020/12/12 05:19:50;;;;;;;10.20;9.10;;;8.40;99.90;;;;;;5013149;28;20426;-69
2020/12/12 05:22:17;;;;;;;12.23;9.63;;;8.40;99.90;;;;;;5013472;28;20417;-69
2020/12/12 05:24:44;;;;;;;10.83;9.73;;;8.40;99.90;;;;;;5012374;28;20440;-69
2020/12/12 05:27:10;;;;;;;10.80;9.50;;;8.10;99.90;;;;;;5010285;28;20438;-69
2020/12/12 05:29:36;;;;;;;10.43;8.57;;;8.20;99.90;;;;;;5012499;28;20426;-69
2020/12/12 05:32:03;;;;;;;13.93;10.90;;;8.20;99.90;;;;;;5012979;28;20471;-69
2020/12/12 05:34:28;;;;;;;10.13;8.80;;;8.20;99.90;;;;;;5012330;28;20514;-69
2020/12/12 05:36:55;;;;;;;10.83;9.10;;;8.30;99.90;;;;;;5011965;28;20513;-69
2020/12/12 05:39:21;;;;;;;12.10;9.90;;;8.50;99.90;;;;;;5012633;28;20645;-71
2020/12/12 05:41:47;;;;;;;13.27;11.60;;;8.40;99.90;;;;;;5013008;28;20401;-69
2020/12/12 05:44:15;;;;;;;10.80;9.60;;;8.40;99.90;;;;;;5013213;28;20901;-69
2020/12/12 05:46:43;;;;;;;9.37;8.17;;;8.50;99.90;;;;;;5012232;28;20437;-69
2020/12/12 05:49:09;;;;;;;9.67;8.77;;;8.50;99.90;;;;;;5013012;28;20425;-69
2020/12/12 05:51:37;;;;;;;9.97;8.80;;;8.60;99.90;;;;;;5010680;28;20418;-69
2020/12/12 05:54:03;;;;;;;9.50;8.20;;;8.70;99.90;;;;;;5012883;28;20213;-69
2020/12/12 05:56:31;;;;;;;9.37;8.20;;;8.70;99.90;;;;;;5011413;28;20425;-69
2020/12/12 05:58:57;;;;;;;8.27;7.47;;;8.80;99.90;;;;;;5012589;28;20182;-69
2020/12/12 06:01:28;;;;;;;9.00;8.00;;;8.90;99.90;;;;;;5012068;28;20799;-70
2020/12/12 06:04:09;;;;;;;10.20;8.77;;;8.70;99.90;;;;;;5012953;28;20414;-69
2020/12/12 06:06:46;;;;;;;9.57;8.00;;;8.80;99.90;;;;;;5012275;28;20402;-69
2020/12/12 06:09:14;;;;;;;9.80;8.23;;;8.80;99.90;;;;;;5012689;28;20410;-69
2020/12/12 06:11:45;;;;;;;10.10;9.00;;;8.90;99.90;;;;;;5011591;28;20576;-69
2020/12/12 06:14:11;;;;;;;10.00;9.00;;;9.00;99.90;;;;;;5012559;28;20540;-69
2020/12/12 06:16:38;;;;;;;10.37;8.60;;;8.80;99.90;;;;;;5011799;28;20418;-69
2020/12/12 06:19:10;;;;;;;10.37;8.87;;;8.70;99.90;;;;;;5012650;28;20414;-69
2020/12/12 06:21:38;;;;;;;11.70;8.50;;;8.80;99.90;;;;;;5011335;28;20775;-69
2020/12/12 06:24:06;;;;;;;9.73;8.73;;;8.80;99.90;;;;;;5012476;28;20426;-69
2020/12/12 06:26:59;;;;;;;9.03;8.13;;;8.80;99.90;;;;;;5011756;28;20457;-69
2020/12/12 06:29:28;;;;;;;8.80;7.73;;;8.90;99.90;;;;;;5011879;28;20502;-71
2020/12/12 06:31:54;;;;;;;8.93;8.03;;;9.00;99.90;;;;;;5012436;28;20469;-69
2020/12/12 06:34:39;;;;;;;8.70;7.77;;;9.00;99.90;;;;;;5012354;28;20532;-69
2020/12/12 06:37:05;;;;;;;8.30;7.50;;;9.00;99.90;;;;;;5012505;28;20413;-69
2020/12/12 06:39:30;;;;;;;8.43;7.50;;;9.10;99.90;;;;;;5011356;28;20426;-69
2020/12/12 06:41:57;;;;;;;8.77;7.57;;;8.90;99.90;;;;;;5011332;28;20427;-69
2020/12/12 06:44:42;;;;;;;8.57;7.63;;;9.00;99.90;;;;;;5012003;28;20175;-70
2020/12/12 06:47:08;;;;;;;10.63;8.23;;;8.80;99.90;;;;;;5012078;28;20811;-68
2020/12/12 06:49:35;;;;;;;9.63;8.40;;;8.70;99.90;;;;;;5011509;28;20460;-69
2020/12/12 06:52:01;;;;;;;8.53;7.53;;;8.60;99.90;;;;;;5012051;28;20414;-69
2020/12/12 06:54:27;;;;;;;9.20;8.23;;;8.60;99.90;;;;;;5011445;28;20453;-69
2020/12/12 06:56:53;;;;;;;10.17;8.90;;;8.50;99.90;;;;;;5012161;28;20440;-69
2020/12/12 06:59:28;;;;;;;9.47;8.50;;;8.60;99.90;;;;;;5012175;28;20210;-69
2020/12/12 07:01:56;;;;;;;9.23;8.33;;;8.80;99.90;;;;;;5010986;28;20414;-69
2020/12/12 07:04:26;;;;;;;9.30;8.40;;;8.80;99.90;;;;;;5012137;28;20450;-69
2020/12/12 07:06:57;;;;;;;9.00;8.10;;;8.80;99.90;;;;;;5012212;28;20400;-69
2020/12/12 07:09:28;;;;;;;8.17;7.33;;;8.80;99.90;;;;;;5011752;28;20443;-71
2020/12/12 07:11:55;;;;;;;8.60;7.80;;;8.80;99.90;;;;;;5011834;28;20901;-69
2020/12/12 07:14:21;;;;;;;8.53;7.77;;;8.80;99.90;;;;;;5011989;28;20464;-69
2020/12/12 07:16:50;;;;;;;8.10;7.30;;;8.90;99.90;;;;;;5011377;28;20517;-69
2020/12/12 07:19:20;;;;;;;8.63;7.80;;;8.90;99.90;;;;;;5012354;28;20517;-69
2020/12/12 07:21:46;;;;;;;7.97;7.27;;;9.00;99.90;;;;;;5011058;28;20425;-69
2020/12/12 07:24:12;;;;;;;7.97;7.27;;;9.00;99.90;;;;;;5012010;28;20418;-69
2020/12/12 07:26:38;;;;;;;7.90;7.20;;;9.10;99.90;;;;;;5011009;28;20973;-69
2020/12/12 07:29:04;;;;;;;8.63;7.90;;;9.10;99.90;;;;;;5011864;28;20230;-69
2020/12/12 07:31:29;;;;;;;7.50;6.90;;;9.20;99.90;;;;;;5011116;28;20186;-70
2020/12/12 07:33:59;;;;;;;7.80;7.10;;;9.20;99.90;;;;;;5012376;28;20203;-69
2020/12/12 07:36:25;;;;;;;7.30;6.63;;;9.30;99.90;;;;;;5015168;28;20183;-70
2020/12/12 07:38:50;;;;;;;7.90;6.93;;;9.30;99.90;;;;;;5014372;28;20421;-69
2020/12/12 07:41:17;;;;;;;7.60;6.90;;;9.30;99.90;;;;;;5015281;28;20169;-69
2020/12/12 07:43:56;;;;;;;8.33;7.50;;;9.30;99.90;;;;;;5014423;28;20171;-69
2020/12/12 07:46:38;;;;;;;7.70;7.00;;;9.40;99.90;;;;;;5015276;28;20916;-69
2020/12/12 07:49:05;;;;;;;7.80;7.20;;;9.30;99.90;;;;;;5014058;28;20403;-69
2020/12/12 07:51:31;;;;;;;7.73;6.93;;;9.30;99.90;;;;;;5014350;28;20406;-69
2020/12/12 07:53:57;;;;;;;7.40;6.80;;;9.20;99.90;;;;;;5015144;28;20480;-69
2020/12/12 07:56:23;;;;;;;7.57;6.90;;;9.20;99.90;;;;;;5014393;28;20913;-69
2020/12/12 07:59:13;;;;;;;6.60;6.10;;;9.20;99.90;;;;;;5013027;28;20453;-69
2020/12/12 08:01:38;;;;;;;7.50;6.80;;;9.10;99.90;;;;;;5013054;28;20418;-69
2020/12/12 08:04:04;;;;;;;7.87;7.20;;;9.00;99.90;;;;;;5013672;28;20428;-69
2020/12/12 08:06:30;;;;;;;8.20;7.50;;;9.00;99.90;;;;;;5014500;28;20258;-71
2020/12/12 08:08:56;;;;;;;7.87;7.17;;;9.10;99.90;;;;;;5014823;28;20550;-69
2020/12/12 08:11:22;;;;;;;7.50;6.90;;;9.20;99.90;;;;;;5014719;28;20229;-69
2020/12/12 08:13:49;;;;;;;8.47;7.57;;;9.30;99.90;;;;;;5012747;28;20572;-69
2020/12/12 08:16:29;;;;;;;8.23;7.43;;;9.30;99.90;;;;;;5013424;28;20422;-68
2020/12/12 08:19:05;;;;;;;8.43;7.73;;;9.30;99.90;;;;;;5014359;28;20928;-68
2020/12/12 08:21:31;;;;;;;8.60;7.80;;;9.30;99.90;;;;;;5013572;28;20480;-70
2020/12/12 08:23:58;;;;;;;8.90;8.00;;;9.20;99.90;;;;;;5014656;28;20437;-68
2020/12/12 08:26:25;;;;;;;8.83;8.10;;;9.00;99.90;;;;;;5014153;28;20981;-68
2020/12/12 08:28:51;;;;;;;7.67;6.97;;;9.10;99.90;;;;;;5013645;28;20421;-68
2020/12/12 08:31:21;;;;;;;8.10;7.40;;;9.20;99.90;;;;;;5014260;28;20406;-68
2020/12/12 08:33:56;;;;;;;8.80;8.00;;;9.30;99.90;;;;;;5013068;28;20966;-69
2020/12/12 08:36:28;;;;;;;9.13;8.20;;;9.20;99.90;;;;;;5009274;28;20409;-69
2020/12/12 08:39:25;;;;;;;9.27;8.47;;;9.30;99.90;;;;;;5013784;28;20398;-68
2020/12/12 08:41:50;;;;;;;10.50;9.57;;;9.40;99.90;;;;;;5012702;28;20442;-68
2020/12/12 08:44:23;;;;;;;7.80;7.07;;;9.50;99.90;;;;;;5014489;28;20898;-68
2020/12/12 08:46:53;;;;;;;8.70;7.90;;;9.60;99.90;;;;;;5013163;28;20475;-68
2020/12/12 08:49:20;;;;;;;8.50;7.80;;;9.70;99.90;;;;;;5013933;28;20406;-68
2020/12/12 08:51:51;;;;;;;8.13;7.30;;;9.70;99.90;;;;;;5013276;28;20473;-68
2020/12/12 08:54:17;;;;;;;9.30;8.30;;;9.80;99.90;;;;;;5013943;28;20454;-68
2020/12/12 08:56:42;;;;;;;9.20;8.27;;;9.80;99.90;;;;;;5011919;28;20426;-69
2020/12/12 08:59:20;;;;;;;9.47;8.57;;;9.90;99.90;;;;;;5013801;28;20175;-68
2020/12/12 09:01:46;;;;;;;8.70;8.00;;;9.90;99.90;;;;;;5013069;28;20198;-68
2020/12/12 09:04:14;;;;;;;9.40;8.53;;;10.00;99.90;;;;;;5013974;28;20829;-68
2020/12/12 09:06:43;;;;;;;8.40;7.70;;;10.00;99.90;;;;;;5012466;28;20926;-68
2020/12/12 09:09:16;;;;;;;9.70;8.90;;;10.10;99.90;;;;;;5013859;28;20417;-68
2020/12/12 09:11:47;;;;;;;9.90;8.97;;;10.10;99.90;;;;;;5012893;28;20408;-69
2020/12/12 09:14:14;;;;;;;10.30;9.30;;;10.10;99.80;;;;;;5013540;28;20443;-68
2020/12/12 09:16:45;;;;;;;10.93;9.90;;;10.10;99.80;;;;;;5013144;28;20407;-69
2020/12/12 09:19:11;;;;;;;10.27;9.33;;;10.10;99.80;;;;;;5013538;28;20419;-68
2020/12/12 09:21:37;;;;;;;9.43;8.53;;;10.20;99.70;;;;;;5012866;28;20438;-69
2020/12/12 09:24:03;;;;;;;8.50;7.70;;;10.20;99.70;;;;;;5013544;28;20184;-68
2020/12/12 09:26:29;;;;;;;10.40;9.50;;;10.20;99.60;;;;;;5012964;28;20225;-68
2020/12/12 09:28:55;;;;;;;9.47;8.63;;;10.20;99.60;;;;;;5012558;28;20410;-68
2020/12/12 09:31:23;;;;;;;11.10;10.00;;;10.20;99.60;;;;;;5013303;28;20421;-68
2020/12/12 09:33:48;;;;;;;10.90;9.80;;;10.30;99.50;;;;;;5012463;28;20184;-68
2020/12/12 09:36:14;;;;;;;10.40;9.40;;;10.30;99.50;;;;;;5013051;28;20408;-68
2020/12/12 09:38:40;;;;;;;10.70;9.73;;;10.30;99.50;;;;;;5011582;28;20562;-69
2020/12/12 09:41:06;;;;;;;10.40;9.50;;;10.40;99.30;;;;;;5012006;28;20558;-68
2020/12/12 09:43:32;;;;;;;8.53;7.83;;;10.40;99.30;;;;;;5013118;28;20406;-70
2020/12/12 09:45:58;;;;;;;9.20;7.83;;;10.40;99.20;;;;;;5012531;28;20190;-69
2020/12/12 09:48:24;;;;;;;9.67;8.63;;;10.50;99.20;;;;;;5013145;28;20408;-68
2020/12/12 09:50:50;;;;;;;7.33;6.70;;;10.50;99.10;;;;;;5012434;28;20406;-68
2020/12/12 09:53:15;;;;;;;7.70;7.00;;;10.50;99.10;;;;;;5012649;28;20176;-68
2020/12/12 09:55:42;;;;;;;7.77;7.10;;;10.50;99.20;;;;;;5012079;28;20468;-68
2020/12/12 09:58:08;;;;;;;9.43;6.93;;;10.50;99.20;;;;;;5012444;28;20179;-68
2020/12/12 10:00:36;;;;;;;8.30;7.50;;;10.60;99.20;;;;;;5012711;28;20413;-70
2020/12/12 10:03:03;;;;;;;8.60;7.80;;;10.70;99.20;;;;;;5011202;28;20425;-69
2020/12/12 10:05:29;;;;;;;8.13;7.43;;;10.70;99.20;;;;;;5012790;28;20444;-68
2020/12/12 10:07:56;;;;;;;7.83;7.13;;;10.70;99.20;;;;;;5011697;28;20573;-68
2020/12/12 10:10:24;;;;;;;7.60;6.90;;;10.80;98.90;;;;;;5012657;28;20430;-68
2020/12/12 10:12:50;;;;;;;7.70;7.10;;;10.80;98.70;;;;;;5011587;28;20991;-68
2020/12/12 10:15:17;;;;;;;6.83;6.30;;;10.90;98.50;;;;;;5012767;28;20458;-68
2020/12/12 10:17:44;;;;;;;7.23;6.63;;;11.00;98.70;;;;;;5010964;28;20411;-69
2020/12/12 10:20:10;;;;;;;7.07;6.57;;;11.00;98.20;;;;;;5012752;28;20415;-68
2020/12/12 10:22:36;;;;;;;6.83;6.33;;;11.00;98.10;;;;;;5012212;28;20424;-70
2020/12/12 10:25:02;;;;;;;7.10;6.60;;;11.10;98.20;;;;;;5011853;28;20956;-69
2020/12/12 10:27:28;;;;;;;6.70;6.20;;;11.10;98.10;;;;;;5010646;28;20476;-69
2020/12/12 10:29:53;;;;;;;6.90;6.40;;;11.40;98.40;;;;;;5011644;28;20457;-69
2020/12/12 10:32:19;;;;;;;7.00;6.40;;;11.80;97.80;;;;;;5012699;28;20684;-69
2020/12/12 10:34:45;;;;;;;6.60;6.00;;;12.00;96.70;;;;;;5011251;28;20209;-69
2020/12/12 10:37:11;;;;;;;6.30;5.90;;;12.10;96.20;;;;;;5012111;28;20190;-69
2020/12/12 10:39:43;;;;;;;6.90;6.10;;;12.20;96.10;;;;;;5012026;28;20601;-70
2020/12/12 10:42:08;;;;;;;7.67;7.07;;;12.20;95.90;;;;;;5012488;28;20177;-68
2020/12/12 10:44:34;;;;;;;6.73;6.00;;;12.20;95.60;;;;;;5011153;28;20902;-69
2020/12/12 10:47:00;;;;;;;7.10;6.40;;;12.20;95.80;;;;;;5011369;28;20176;-68
2020/12/12 10:49:26;;;;;;;6.60;6.10;;;12.20;95.80;;;;;;5012120;28;20183;-69
2020/12/12 10:51:55;;;;;;;6.20;5.80;;;12.20;95.80;;;;;;5011393;28;20169;-69
2020/12/12 10:54:21;;;;;;;7.13;6.63;;;12.30;95.60;;;;;;5011036;28;20223;-69
2020/12/12 10:56:47;;;;;;;6.73;6.23;;;12.30;95.70;;;;;;5011418;28;20410;-69
2020/12/12 10:59:13;;;;;;;5.67;5.27;;;12.20;95.60;;;;;;5012037;28;20402;-68
2020/12/12 11:01:39;;;;;;;6.47;5.97;;;12.20;95.80;;;;;;5011767;28;20449;-71
2020/12/12 11:04:05;;;;;;;9.43;8.60;;;12.10;95.70;;;;;;5011717;28;20422;-69
2020/12/12 11:06:32;;;;;;;6.60;6.10;;;12.00;95.80;;;;;;5011709;28;20433;-69
2020/12/12 11:09:03;;;;;;;5.70;5.30;;;11.90;95.90;;;;;;5013581;28;20412;-69
2020/12/12 11:11:28;;;;;;;5.33;4.83;;;11.70;96.10;;;;;;5015907;28;20463;-69
2020/12/12 11:13:54;;;;;;;5.60;5.20;;;11.70;96.30;;;;;;5014956;28;20417;-69
2020/12/12 11:16:21;;;;;;;5.53;5.23;;;11.40;96.60;;;;;;5015757;28;20187;-69
2020/12/12 11:18:49;;;;;;;5.30;4.90;;;11.40;97.00;;;;;;5015520;28;20756;-69
2020/12/12 11:21:22;;;;;;;5.70;5.10;;;11.30;96.90;;;;;;5015399;28;20483;-69
2020/12/12 11:23:48;;;;;;;5.20;4.77;;;11.00;97.70;;;;;;5013943;28;20425;-69
2020/12/12 11:26:15;;;;;;;6.17;5.67;;;11.00;97.80;;;;;;5015307;28;20456;-69
2020/12/12 11:28:42;;;;;;;7.00;5.37;;;11.00;98.20;;;;;;5015149;28;20187;-69
2020/12/12 11:31:08;;;;;;;5.77;5.27;;;11.00;98.10;;;;;;5015389;28;20416;-68
2020/12/12 11:33:39;;;;;;;5.40;4.97;;;11.10;98.10;;;;;;5015687;28;20416;-68
2020/12/12 11:36:40;;;;;;;5.33;4.93;;;11.10;98.00;;;;;;5014906;28;20453;-69
2020/12/12 11:39:00;;;;;;;4.90;4.60;;;11.20;98.10;;;;;;5013759;28;20430;-71
2020/12/12 11:48:51;;;;;;;5.43;5.03;;;11.40;97.90;;;;;;5014159;28;20197;-72
2020/12/12 11:51:17;;;;;;;4.67;4.37;;;11.40;97.80;;;;;;5015242;28;20525;-71
2020/12/12 11:53:43;;;;;;;5.67;5.27;;;11.30;97.80;;;;;;5014503;28;20429;-74
2020/12/12 11:56:08;;;;;;;4.73;4.50;;;11.60;98.40;;;;;;5015067;28;20193;-71
2020/12/12 11:58:34;;;;;;;6.60;6.00;;;11.70;97.90;;;;;;5015103;28;20513;-71
2020/12/12 12:01:00;;;;;;;4.50;4.20;;;11.90;97.30;;;;;;5013712;28;20209;-71
2020/12/12 12:03:26;;;;;;;6.13;5.63;;;11.70;96.80;;;;;;5015229;28;20597;-71
2020/12/12 12:05:52;;;;;;;5.13;4.73;;;11.70;97.00;;;;;;5014015;28;20455;-71
2020/12/12 12:08:35;;;;;;;5.27;4.87;;;11.70;97.10;;;;;;5014353;28;20211;-71
2020/12/12 12:11:43;;;;;;;5.90;5.50;;;11.60;97.20;;;;;;5014048;28;20398;-71
2020/12/12 12:13:49;;;;;;;5.70;5.30;;;11.80;97.60;;;;;;5004785;28;20427;-71
2020/12/12 12:16:20;;;;;;;5.67;5.27;;;12.00;97.10;;;;;;5014098;28;20802;-71
2020/12/12 12:18:47;;;;;;;5.63;5.23;;;12.00;96.70;;;;;;5013572;28;20294;-72
2020/12/12 12:21:13;;;;;;;6.20;5.77;;;11.90;97.30;;;;;;5013949;28;20452;-71
2020/12/12 12:23:40;;;;;;;6.63;6.13;;;12.00;97.10;;;;;;5014152;28;20425;-71
2020/12/12 12:26:05;;;;;;;6.77;6.27;;;12.00;96.70;;;;;;5013554;28;20716;-71
2020/12/12 12:28:31;;;;;;;6.80;6.20;;;11.80;96.60;;;;;;5015318;28;20910;-72
2020/12/12 12:30:57;;;;;;;6.50;5.90;;;11.80;96.90;;;;;;5012121;28;20429;-71
2020/12/12 12:33:23;;;;;;;7.13;6.53;;;11.60;97.20;;;;;;5013961;28;20418;-72
2020/12/12 12:35:49;;;;;;;6.67;6.27;;;11.50;98.30;;;;;;5013224;28;20490;-72
2020/12/12 12:38:15;;;;;;;7.77;7.07;;;11.40;97.90;;;;;;5013632;28;20186;-71
2020/12/12 12:40:41;;;;;;;6.00;5.50;;;11.40;98.10;;;;;;5013606;28;20185;-71
2020/12/12 12:43:07;;;;;;;6.40;5.90;;;11.10;98.20;;;;;;5013307;28;20762;-71
2020/12/12 12:45:33;;;;;;;8.30;7.60;;;10.70;98.90;;;;;;5013924;28;20423;-71
2020/12/12 12:47:59;;;;;;;7.23;6.40;;;10.80;99.80;;;;;;5013007;28;20423;-72
2020/12/12 12:50:34;;;;;;;6.10;5.70;;;10.80;99.60;;;;;;5013908;28;20418;-71
2020/12/12 12:53:04;;;;;;;6.10;5.50;;;10.70;99.40;;;;;;5013299;28;20410;-71
2020/12/12 12:55:31;;;;;;;6.83;6.23;;;10.50;99.90;;;;;;5012870;28;20980;-71
2020/12/12 12:57:58;;;;;;;7.20;6.60;;;10.30;99.90;;;;;;5013049;28;20407;-68
2020/12/12 13:00:25;;;;;;;7.40;6.70;;;10.30;99.90;;;;;;5013648;28;20891;-68